Houston, Arkansas
Current Conditions -  °F | °C
As of 1:53 AM on Monday 26 Jan 2015 (Local Time) from KRUE Reporting Station
Overcast Overcast  
Wind Chill: 40°   Ceiling: 3300
Heat Index: 44°   Visibility: 10mi
Dew Point: 31°   Wind: 7mph
Humidity: 60%   Direction: 310°NW
Pressure: 30.08"   Gusts: NA
Location:  35.03°N, 92.69°W
Report Text: KRUE 260753Z AUTO 31006KT 10SM OVC033 07/M01 A3008 RMK AO2 SLP184 T00671006
Loading
Personal Weather Stations






























Interactive Weather Map New forecast layout! Learn more

10-Day Weather Forecast

Advertisements
Track Severe Weather on mobile